スィクティフカル の空港の天気 - METARとTAF

Syktyvkar ( UUYY / SCW ) - ロシア スィクティフカル
飛行場実況気象(Metar)
観測時間07/29 06:00 MSK (07/29 03:00 UTC)
風向・風速南 2m/s
視程10km以上
天気現象
全天の4割程度の雲 雲底高度 790m
気温12℃
湿度94%
気圧1005hPa
METARUUYY 290300Z 17002MPS 9999 SCT026CB 12/11 Q1005 R18/29//51 NOSIG RMK QFE745/0993
過去の天気等 Google飛行場航空写真 Wunderground天気予報

過去48時間のMETAR

飛行場予報(TAF)
発表時間: 7/29 05:00 MSK (7/29 02:00 UTC)
予報対象時間: 29日6時 MSK ~ 30日6時 MSK
風向・風速北西 3m/s
視程10km以上
全天の8割程度の積乱雲 雲底高度 610m
29日6時 MSK ~ 29日24時 MSK に一時的に
視程6000m
天気現象弱いしゅう雨
少しの雲 雲底高度 210m
全天の8割程度の積乱雲 雲底高度 490m
29日18時 MSK ~ 29日20時 MSK に徐々に
風向・風速東 3m/s 瞬間風速 8m/s
30日0時 MSK ~ 30日6時 MSK に一時的に
視程6000m
天気現象弱い雷雨
少しの雲 雲底高度 150m
全天の8割程度の積乱雲 雲底高度 490m
TAF UUYY 290200Z 2903/3003 31003MPS 9999 BKN020CB
TEMPO 2903/2921 6000 -SHRA FEW007 BKN016CB
BECMG 2915/2917 10003G08MPS
TEMPO 2921/3003 6000 -TSRA FEW005 BKN016CB